C65

Plymouth Municipal Airport

Plymouth, Indiana, USA
METAR KC65 210915Z AUTO 00000KT 10SM CLR 00/00 A3042 RMK A01
Observed Flight Rules
Apr-21 @ 09:15 UTC (34 minutes ago) Visual Flight Rules
Visibility Clouds
10 miles
  • Clear skies
Temperatures Readings
Current 0°C / 32°F
Dewpoint 0°C / 32°F
Humidity 100%
Altimeter 30.42" Hg
Pressure 1030 hPa
Elevation 244
METAR KC65 210915Z AUTO 00000KT 10SM CLR 00/00 A3042 RMK A01
Observed Flight Rules
Apr-21 @ 09:15 UTC
(34 minutes ago)
VFR
Clouds
  • Clear skies
Temperature Dewpoint
0°C / 32°F 0°C / 32°F
Humidity Altimeter Pressure
100% 30.42" Hg 1030 hPa